Time;durP1;ratioP1;P1;durP2;ratioP2;P2;SDS_P1;SDS_P2;PMS_P1;PMS_P2;Temp;Humidity;BMP_temperature;BMP_pressure;BME280_temperature;BME280_humidity;BME280_pressure;Samples;Min_cycle;Max_cycle;Signal;HPM_P1;HPM_P2
2022/01/30 00:01:19;;;;;;;;;;;;;;;6.89;59.57;99742.87;4468868;32;25524;-83
2022/01/30 00:03:44;;;;;;;;;;;;;;;6.83;59.56;99738.62;4455167;32;19976;-83
2022/01/30 00:06:09;;;;;;;;;;;;;;;6.89;59.56;99742.87;4469436;32;20016;-83
2022/01/30 00:08:34;;;;;;;;;;;;;;;6.93;59.56;99744.53;4469454;32;19973;-83
2022/01/30 00:11:08;;;;;;;;;;;;;;;6.68;59.56;99744.09;4455052;32;20020;-83
2022/01/30 00:13:34;;;;;;;;;;;;;;;6.67;59.56;99742.37;4469256;32;19997;-83
2022/01/30 00:16:04;;;;;;;;;;;;;;;6.78;59.56;99733.53;4454969;32;19981;-83
2022/01/30 00:21:08;;;;;;;;;;;;;;;6.82;59.56;99721.41;4469398;32;20036;-83
2022/01/30 00:23:36;;;;;;;;;;;;;;;6.78;59.56;99719.75;4456307;32;19991;-83
2022/01/30 00:26:04;;;;;;;;;;;;;;;6.84;59.56;99708.44;4469532;32;19981;-83
2022/01/30 00:28:32;;;;;;;;;;;;;;;6.75;59.56;99699.13;4455452;32;20028;-83
2022/01/30 00:30:58;;;;;;;;;;;;;;;6.81;59.56;99699.00;4455505;32;20387;-83
2022/01/30 00:33:23;;;;;;;;;;;;;;;6.90;59.57;99682.47;4469289;32;19992;-83
2022/01/30 00:35:48;;;;;;;;;;;;;;;6.88;59.56;99669.56;4454870;32;20295;-84
2022/01/30 00:38:19;;;;;;;;;;;;;;;6.87;59.56;99665.28;4454272;32;25913;-83
2022/01/30 00:40:47;;;;;;;;;;;;;;;6.82;59.56;99661.91;4455506;32;19988;-83
2022/01/30 00:43:12;;;;;;;;;;;;;;;6.87;59.56;99649.75;4455021;32;19988;-83
2022/01/30 00:45:38;;;;;;;;;;;;;;;6.75;59.55;99652.56;4469223;32;19984;-84
2022/01/30 00:48:03;;;;;;;;;;;;;;;6.79;59.56;99651.59;4441286;32;30110;-83
2022/01/30 00:50:29;;;;;;;;;;;;;;;6.75;59.55;99660.31;4469240;32;19981;-83
2022/01/30 00:52:55;;;;;;;;;;;;;;;6.70;59.55;99660.41;4469180;32;19992;-83
2022/01/30 00:55:27;;;;;;;;;;;;;;;6.68;59.55;99653.56;4468935;32;19987;-84
2022/01/30 00:57:52;;;;;;;;;;;;;;;6.67;59.55;99654.44;4455119;32;20345;-83
2022/01/30 01:00:18;;;;;;;;;;;;;;;6.70;59.55;99641.44;4468981;32;20014;-86
2022/01/30 01:02:43;;;;;;;;;;;;;;;6.82;59.56;99632.59;4468411;32;19999;-84
2022/01/30 01:05:08;;;;;;;;;;;;;;;6.81;59.56;99647.25;4441746;32;20033;-83
2022/01/30 01:07:35;;;;;;;;;;;;;;;6.93;59.56;99649.63;4454979;32;20392;-83
2022/01/30 01:10:08;;;;;;;;;;;;;;;6.66;59.56;99645.81;4454963;32;20041;-83
2022/01/30 01:23:30;;;;;;;;;;;;;;;6.72;59.55;99600.88;4469035;32;19995;-82
2022/01/30 01:25:56;;;;;;;;;;;;;;;6.78;59.55;99608.50;4469004;32;20022;-82
2022/01/30 01:28:21;;;;;;;;;;;;;;;6.75;59.56;99617.19;4454782;32;20017;-83
2022/01/30 01:30:47;;;;;;;;;;;;;;;6.86;59.56;99616.12;4454567;32;19993;-83
2022/01/30 01:33:13;;;;;;;;;;;;;;;6.86;59.56;99611.81;4468976;32;19991;-83
2022/01/30 01:35:38;;;;;;;;;;;;;;;6.87;59.56;99599.75;4441999;32;19976;-82
2022/01/30 01:38:04;;;;;;;;;;;;;;;6.85;59.56;99584.22;4468791;32;20007;-82
2022/01/30 01:40:29;;;;;;;;;;;;;;;6.92;59.56;99580.66;4454764;32;20042;-82
2022/01/30 01:42:55;;;;;;;;;;;;;;;6.91;59.57;99572.94;4454525;32;19985;-83
2022/01/30 01:45:23;;;;;;;;;;;;;;;6.93;59.56;99571.16;4454541;32;19993;-82
2022/01/30 01:47:48;;;;;;;;;;;;;;;6.86;59.56;99564.38;4468830;32;19969;-82
2022/01/30 01:50:27;;;;;;;;;;;;;;;6.70;59.55;99554.34;4468763;32;20823;-83
2022/01/30 01:52:52;;;;;;;;;;;;;;;6.76;59.55;99549.03;4442798;32;19983;-83
2022/01/30 01:55:18;;;;;;;;;;;;;;;6.81;59.56;99542.94;4454187;32;19992;-83
2022/01/30 01:57:43;;;;;;;;;;;;;;;7.02;59.56;99547.66;4467918;32;34434;-83
2022/01/30 02:00:08;;;;;;;;;;;;;;;6.83;59.56;99539.41;4467924;32;26519;-83
2022/01/30 02:02:33;;;;;;;;;;;;;;;6.87;59.56;99551.44;4454209;32;19976;-82
2022/01/30 02:05:02;;;;;;;;;;;;;;;7.02;59.57;99547.66;4453794;32;20314;-83
2022/01/30 02:13:32;;;;;;;;;;;;;;;6.80;59.57;99534.31;4442021;32;19985;-82
2022/01/30 02:24:12;;;;;;;;;;;;;;;6.23;59.53;99521.63;4468097;32;19987;-82
2022/01/30 02:26:41;;;;;;;;;;;;;;;6.20;59.53;99501.00;4454584;32;19985;-82
2022/01/30 02:29:06;;;;;;;;;;;;;;;6.21;59.53;99505.28;4468161;32;19980;-82
2022/01/30 02:31:35;;;;;;;;;;;;;;;6.10;59.52;99492.56;4467643;32;22673;-82
2022/01/30 02:34:00;;;;;;;;;;;;;;;6.16;59.53;99486.44;4453598;32;19996;-83
2022/01/30 02:36:26;;;;;;;;;;;;;;;6.11;59.52;99480.47;4440081;32;31158;-82
2022/01/30 02:38:53;;;;;;;;;;;;;;;5.97;59.51;99474.72;4440035;32;32664;-82
2022/01/30 02:41:18;;;;;;;;;;;;;;;6.03;59.52;99461.69;4468024;32;20003;-82
2022/01/30 02:43:55;;;;;;;;;;;;;;;5.90;59.51;99457.63;4453053;32;23754;-82
2022/01/30 02:46:30;;;;;;;;;;;;;;;5.89;59.51;99451.56;4455123;32;20381;-82
2022/01/30 02:48:59;;;;;;;;;;;;;;;6.08;59.52;99440.06;4468098;32;19993;-82
2022/01/30 02:51:33;;;;;;;;;;;;;;;5.97;59.51;99436.84;4453546;32;20016;-82
2022/01/30 02:54:05;;;;;;;;;;;;;;;6.22;59.53;99434.63;4441547;32;19973;-82
2022/01/30 02:56:31;;;;;;;;;;;;;;;6.27;59.54;99432.81;4454607;32;19981;-83
2022/01/30 02:58:56;;;;;;;;;;;;;;;6.34;59.53;99433.53;4440587;32;20007;-82
2022/01/30 03:01:21;;;;;;;;;;;;;;;6.56;59.54;99437.37;4440498;32;20052;-82
2022/01/30 03:03:46;;;;;;;;;;;;;;;6.49;59.53;99422.88;4452548;32;34698;-81
2022/01/30 03:06:12;;;;;;;;;;;;;;;6.55;59.54;99427.91;4467133;32;30036;-82
2022/01/30 03:08:37;;;;;;;;;;;;;;;6.62;59.55;99413.97;4440500;32;20015;-82
2022/01/30 03:11:02;;;;;;;;;;;;;;;6.70;59.55;99416.41;4467814;32;19988;-82
2022/01/30 03:13:28;;;;;;;;;;;;;;;6.45;59.54;99414.34;4467743;32;20003;-83
2022/01/30 03:15:53;;;;;;;;;;;;;;;6.59;59.55;99410.59;4453386;32;19995;-82
2022/01/30 03:18:18;;;;;;;;;;;;;;;6.44;59.54;99407.47;4452995;32;19996;-83
2022/01/30 03:20:43;;;;;;;;;;;;;;;6.24;59.53;99411.34;4466959;32;20000;-83
2022/01/30 03:23:08;;;;;;;;;;;;;;;6.23;59.53;99401.88;4467306;32;20334;-82
2022/01/30 03:25:34;;;;;;;;;;;;;;;6.25;59.52;99390.63;4467894;32;19989;-84
2022/01/30 03:28:01;;;;;;;;;;;;;;;6.17;59.52;99387.38;4469848;32;19969;-83
2022/01/30 03:30:29;;;;;;;;;;;;;;;6.26;59.52;99389.75;4455748;32;20007;-83
2022/01/30 03:32:54;;;;;;;;;;;;;;;6.35;59.54;99373.19;4456010;32;20024;-82
2022/01/30 03:35:20;;;;;;;;;;;;;;;6.47;59.54;99380.69;4469862;32;19988;-83
2022/01/30 03:37:45;;;;;;;;;;;;;;;6.34;59.53;99374.91;4455789;32;19977;-83
2022/01/30 03:40:10;;;;;;;;;;;;;;;6.52;59.55;99380.59;4455860;32;20008;-83
2022/01/30 03:42:36;;;;;;;;;;;;;;;6.52;59.54;99381.44;4469808;32;19984;-82
2022/01/30 03:45:01;;;;;;;;;;;;;;;6.37;59.53;99358.50;4455217;32;19992;-82
2022/01/30 03:47:26;;;;;;;;;;;;;;;6.51;59.55;99356.47;4468843;32;32807;-83
2022/01/30 03:49:52;;;;;;;;;;;;;;;6.62;59.55;99354.50;4469534;32;19997;-81
2022/01/30 03:52:17;;;;;;;;;;;;;;;6.60;59.55;99365.75;4469616;32;20007;-82
2022/01/30 03:54:42;;;;;;;;;;;;;;;6.50;59.55;99380.62;4454638;32;23850;-81
2022/01/30 03:57:07;;;;;;;;;;;;;;;6.45;59.54;99375.56;4454659;32;24995;-80
2022/01/30 03:59:33;;;;;;;;;;;;;;;6.59;59.55;99366.63;4469413;32;19992;-82
2022/01/30 04:01:58;;;;;;;;;;;;;;;6.56;59.54;99367.56;4454370;32;29722;-82
2022/01/30 04:04:23;;;;;;;;;;;;;;;6.41;59.54;99357.56;4455041;32;20007;-81
2022/01/30 04:06:49;;;;;;;;;;;;;;;6.46;59.54;99359.16;4469405;32;19985;-82
2022/01/30 04:09:14;;;;;;;;;;;;;;;6.13;59.53;99354.69;4455122;32;19996;-83
2022/01/30 04:11:39;;;;;;;;;;;;;;;6.31;59.53;99353.47;4469492;32;20003;-82
2022/01/30 04:14:05;;;;;;;;;;;;;;;6.34;59.53;99364.59;4468821;32;20014;-82
2022/01/30 04:16:30;;;;;;;;;;;;;;;6.49;59.54;99342.72;4469201;32;20035;-82
2022/01/30 04:18:57;;;;;;;;;;;;;;;6.32;59.53;99340.50;4454944;32;20036;-82
2022/01/30 04:21:23;;;;;;;;;;;;;;;6.50;59.54;99344.44;4469541;32;20032;-83
2022/01/30 04:23:48;;;;;;;;;;;;;;;6.62;59.55;99344.16;4454945;32;20620;-83
2022/01/30 04:26:13;;;;;;;;;;;;;;;6.59;59.55;99345.94;4454530;32;19997;-83
2022/01/30 04:28:38;;;;;;;;;;;;;;;6.63;59.54;99332.94;4468905;32;20012;-83
2022/01/30 04:31:04;;;;;;;;;;;;;;;6.68;59.55;99338.84;4469119;32;20006;-83
2022/01/30 04:33:29;;;;;;;;;;;;;;;6.56;59.54;99341.72;4454604;32;20026;-83
2022/01/30 04:35:55;;;;;;;;;;;;;;;6.64;59.56;99337.22;4469062;32;19997;-83
2022/01/30 04:38:34;;;;;;;;;;;;;;;6.65;59.56;99326.00;4453871;32;20016;-83
2022/01/30 04:52:22;;;;;;;;;;;;;;;6.83;59.56;99355.75;4469089;32;19988;-82
2022/01/30 05:08:24;;;;;;;;;;;;;;;7.04;59.57;99339.72;4419976;32;19993;-82
2022/01/30 05:10:49;;;;;;;;;;;;;;;7.12;59.58;99333.53;4419923;32;20045;-82
2022/01/30 05:13:18;;;;;;;;;;;;;;;7.15;59.57;99336.88;4441954;32;20003;-83
2022/01/30 05:15:44;;;;;;;;;;;;;;;7.23;59.58;99352.22;4468712;32;19985;-81
2022/01/30 05:18:10;;;;;;;;;;;;;;;7.01;59.56;99341.53;4468859;32;19992;-81
2022/01/30 05:20:35;;;;;;;;;;;;;;;7.08;59.57;99327.53;4468793;32;20032;-82
2022/01/30 05:23:01;;;;;;;;;;;;;;;7.22;59.58;99332.41;4468802;32;20003;-81
2022/01/30 05:25:26;;;;;;;;;;;;;;;7.19;59.59;99335.06;4468763;32;20000;-80
2022/01/30 05:27:51;;;;;;;;;;;;;;;7.08;59.57;99335.31;4454244;32;20011;-81
2022/01/30 05:30:16;;;;;;;;;;;;;;;7.01;59.56;99326.84;4454378;32;20016;-82
2022/01/30 05:32:42;;;;;;;;;;;;;;;7.04;59.57;99324.19;4468688;32;20097;-81
2022/01/30 05:35:07;;;;;;;;;;;;;;;7.05;59.57;99332.81;4468703;32;20458;-82
2022/01/30 05:37:32;;;;;;;;;;;;;;;6.97;59.57;99324.38;4454344;32;20318;-82
2022/01/30 05:39:58;;;;;;;;;;;;;;;6.93;59.56;99322.75;4468799;32;20023;-82
2022/01/30 05:42:26;;;;;;;;;;;;;;;6.92;59.57;99331.41;4454353;32;19968;-82
2022/01/30 05:45:12;;;;;;;;;;;;;;;7.00;59.57;99326.91;4454260;32;19999;-82
2022/01/30 05:47:44;;;;;;;;;;;;;;;7.21;59.58;99320.34;4468880;32;20030;-83
2022/01/30 05:50:09;;;;;;;;;;;;;;;7.05;59.57;99322.44;4455377;32;20007;-83
2022/01/30 05:52:34;;;;;;;;;;;;;;;6.99;59.57;99318.28;4468920;32;20277;-82
2022/01/30 05:55:00;;;;;;;;;;;;;;;6.94;59.57;99317.53;4430234;32;1193437;-81
2022/01/30 05:57:26;;;;;;;;;;;;;;;7.15;59.57;99323.09;4467782;32;33610;-84
2022/01/30 05:59:52;;;;;;;;;;;;;;;7.01;59.57;99329.44;4454153;32;20011;-83
2022/01/30 06:02:17;;;;;;;;;;;;;;;7.02;59.57;99328.56;4468502;32;20004;-83
2022/01/30 06:04:42;;;;;;;;;;;;;;;7.11;59.58;99337.84;4467616;32;31703;-83
2022/01/30 06:07:10;;;;;;;;;;;;;;;7.03;59.58;99332.84;4468296;32;20032;-83
2022/01/30 06:09:35;;;;;;;;;;;;;;;6.86;59.56;99337.59;4454468;32;19997;-85
2022/01/30 06:12:00;;;;;;;;;;;;;;;6.84;59.56;99328.97;4467689;32;28796;-84
2022/01/30 06:14:25;;;;;;;;;;;;;;;7.03;59.57;99319.06;4453340;32;29159;-84
2022/01/30 06:16:53;;;;;;;;;;;;;;;6.84;59.56;99305.69;4468353;32;20334;-84
2022/01/30 06:19:18;;;;;;;;;;;;;;;6.89;59.57;99303.03;4468427;32;20034;-85
2022/01/30 06:21:44;;;;;;;;;;;;;;;6.87;59.56;99328.09;4468212;32;20273;-85
2022/01/30 06:24:09;;;;;;;;;;;;;;;6.86;59.56;99345.34;4453930;32;20007;-85
2022/01/30 06:26:34;;;;;;;;;;;;;;;7.03;59.58;99335.44;4467671;32;25356;-84
2022/01/30 06:28:59;;;;;;;;;;;;;;;7.12;59.58;99329.19;4468185;32;20003;-84
2022/01/30 06:31:26;;;;;;;;;;;;;;;7.19;59.58;99328.16;4453996;32;20269;-83
2022/01/30 06:33:51;;;;;;;;;;;;;;;7.21;59.58;99333.28;4468151;32;20296;-83
2022/01/30 06:36:17;;;;;;;;;;;;;;;7.13;59.58;99335.22;4453774;32;19988;-82
2022/01/30 06:38:42;;;;;;;;;;;;;;;7.29;59.58;99318.41;4467482;32;25909;-82
2022/01/30 06:41:07;;;;;;;;;;;;;;;7.37;59.59;99329.44;4467288;32;29461;-82
2022/01/30 06:43:32;;;;;;;;;;;;;;;7.63;59.61;99339.94;4467431;32;22388;-81
2022/01/30 06:45:57;;;;;;;;;;;;;;;7.75;59.61;99346.53;4467611;32;20701;-81
2022/01/30 06:48:23;;;;;;;;;;;;;;;7.57;59.61;99341.84;4467936;32;19984;-83
2022/01/30 06:50:48;;;;;;;;;;;;;;;7.85;59.62;99362.69;4453646;32;20015;-82
2022/01/30 06:53:13;;;;;;;;;;;;;;;7.73;59.61;99350.91;4467062;32;30850;-83
2022/01/30 06:55:42;;;;;;;;;;;;;;;7.85;59.62;99354.94;4452555;32;33169;-82
2022/01/30 06:58:08;;;;;;;;;;;;;;;7.92;59.62;99367.66;4467737;32;19989;-82
2022/01/30 07:00:33;;;;;;;;;;;;;;;7.98;59.62;99340.72;4453831;32;20041;-82
2022/01/30 07:03:00;;;;;;;;;;;;;;;8.04;59.62;99342.28;4469440;32;20295;-82
2022/01/30 07:05:25;;;;;;;;;;;;;;;8.25;59.64;99342.53;4469981;32;20027;-82
2022/01/30 07:07:50;;;;;;;;;;;;;;;8.35;59.64;99352.69;4469367;32;23779;-83
2022/01/30 07:10:16;;;;;;;;;;;;;;;8.42;59.64;99336.03;4469635;32;20014;-83
2022/01/30 07:12:41;;;;;;;;;;;;;;;8.38;59.65;99326.66;4469829;32;20006;-82
2022/01/30 07:15:06;;;;;;;;;;;;;;;8.31;59.64;99326.81;4469237;32;27579;-83
2022/01/30 07:17:31;;;;;;;;;;;;;;;8.19;59.64;99321.97;4455493;32;20007;-82
2022/01/30 07:19:56;;;;;;;;;;;;;;;8.30;59.65;99319.06;4469758;32;20003;-81
2022/01/30 07:22:22;;;;;;;;;;;;;;;8.38;59.65;99317.13;4442072;32;31321;-83
2022/01/30 07:24:47;;;;;;;;;;;;;;;8.40;59.65;99306.69;4442076;32;34058;-82
2022/01/30 07:27:12;;;;;;;;;;;;;;;8.81;59.67;99311.47;4469666;32;25493;-82
2022/01/30 07:29:37;;;;;;;;;;;;;;;8.86;59.67;99314.75;4469472;32;21867;-81
2022/01/30 07:32:03;;;;;;;;;;;;;;;8.59;59.67;99305.25;4470002;32;20015;-82
2022/01/30 07:34:28;;;;;;;;;;;;;;;8.60;59.66;99301.75;4469606;32;20004;-81
2022/01/30 07:36:57;;;;;;;;;;;;;;;8.47;59.66;99284.84;4455043;32;21476;-82
2022/01/30 07:39:26;;;;;;;;;;;;;;;8.48;59.65;99318.53;4469760;32;20032;-82
2022/01/30 07:41:52;;;;;;;;;;;;;;;8.57;59.65;99332.97;4456031;32;19970;-82
2022/01/30 07:44:17;;;;;;;;;;;;;;;8.64;59.66;99323.25;4468972;32;26317;-82
2022/01/30 07:46:43;;;;;;;;;;;;;;;8.64;59.66;99338.81;4469630;32;20022;-81
2022/01/30 07:49:08;;;;;;;;;;;;;;;8.63;59.66;99334.53;4455155;32;20032;-82
2022/01/30 07:51:33;;;;;;;;;;;;;;;8.63;59.66;99295.62;4468804;32;30802;-81
2022/01/30 07:53:59;;;;;;;;;;;;;;;8.62;59.66;99315.53;4468787;32;26807;-81
2022/01/30 07:56:24;;;;;;;;;;;;;;;8.59;59.66;99311.28;4469563;32;19976;-82
2022/01/30 07:58:49;;;;;;;;;;;;;;;8.68;59.66;99338.69;4469059;32;19988;-82
2022/01/30 08:01:14;;;;;;;;;;;;;;;8.80;59.66;99348.69;4469517;32;19999;-81
2022/01/30 08:03:40;;;;;;;;;;;;;;;8.92;59.68;99327.53;4469095;32;20728;-81
2022/01/30 08:06:05;;;;;;;;;;;;;;;8.90;59.68;99336.25;4468948;32;22089;-81
2022/01/30 08:08:30;;;;;;;;;;;;;;;8.97;59.69;99368.91;4468875;32;27164;-82
2022/01/30 08:10:55;;;;;;;;;;;;;;;9.05;59.69;99372.12;4469472;32;19989;-82
2022/01/30 08:13:20;;;;;;;;;;;;;;;9.24;59.69;99369.81;4467703;32;28694;-80
2022/01/30 08:15:46;;;;;;;;;;;;;;;8.93;59.67;99373.34;4468596;32;33371;-81
2022/01/30 08:18:11;;;;;;;;;;;;;;;8.92;59.68;99387.22;4469422;32;20310;-80
2022/01/30 08:20:37;;;;;;;;;;;;;;;9.03;59.68;99405.09;4469477;32;20000;-80
2022/01/30 08:23:10;;;;;;;;;;;;;;;9.26;59.69;99406.09;4454808;32;20120;-82
2022/01/30 08:25:35;;;;;;;;;;;;;;;8.98;59.68;99419.94;4455010;32;20052;-81
2022/01/30 08:28:00;;;;;;;;;;;;;;;8.79;59.66;99398.91;4468808;32;27109;-82
2022/01/30 08:30:27;;;;;;;;;;;;;;;8.60;59.66;99403.78;4468748;32;29456;-81
2022/01/30 08:32:52;;;;;;;;;;;;;;;8.71;59.67;99394.81;4469402;32;19981;-82
2022/01/30 08:35:17;;;;;;;;;;;;;;;8.68;59.66;99424.31;4469232;32;20238;-83
2022/01/30 08:37:43;;;;;;;;;;;;;;;8.69;59.66;99418.22;4469308;32;19973;-82
2022/01/30 08:40:09;;;;;;;;;;;;;;;8.52;59.66;99423.91;4468717;32;31094;-82
2022/01/30 08:42:34;;;;;;;;;;;;;;;8.74;59.66;99425.84;4469631;32;19980;-82
2022/01/30 08:44:59;;;;;;;;;;;;;;;8.73;59.66;99419.81;4455006;32;19993;-82
2022/01/30 08:47:25;;;;;;;;;;;;;;;8.61;59.66;99430.56;4468637;32;20238;-80
2022/01/30 08:49:50;;;;;;;;;;;;;;;8.90;59.68;99408.94;4469252;32;19996;-81
2022/01/30 08:52:16;;;;;;;;;;;;;;;8.93;59.68;99409.69;4468618;32;29132;-80
2022/01/30 08:54:42;;;;;;;;;;;;;;;8.98;59.68;99400.91;4468803;32;20325;-81
2022/01/30 08:57:07;;;;;;;;;;;;;;;9.25;59.69;99427.78;4468990;32;20030;-81
2022/01/30 08:59:32;;;;;;;;;;;;;;;9.10;59.68;99416.13;4454649;32;19984;-80
2022/01/30 09:01:57;;;;;;;;;;;;;;;9.14;59.69;99418.56;4468277;32;28915;-83
2022/01/30 09:04:22;;;;;;;;;;;;;;;9.07;59.68;99422.25;4467941;32;26949;-81
2022/01/30 09:06:48;;;;;;;;;;;;;;;9.09;59.69;99423.06;4454349;32;20522;-81
2022/01/30 09:09:13;;;;;;;;;;;;;;;9.03;59.68;99422.41;4468362;32;27348;-82
2022/01/30 09:11:38;;;;;;;;;;;;;;;8.98;59.68;99424.28;4468756;32;20646;-81
2022/01/30 09:14:03;;;;;;;;;;;;;;;9.10;59.68;99435.13;4454102;32;23410;-82
2022/01/30 09:16:29;;;;;;;;;;;;;;;9.31;59.69;99438.81;4468928;32;20022;-82
2022/01/30 09:18:56;;;;;;;;;;;;;;;9.41;59.70;99437.63;4469022;32;20025;-83
2022/01/30 09:21:21;;;;;;;;;;;;;;;9.52;59.71;99411.28;4454721;32;20008;-83
2022/01/30 09:23:46;;;;;;;;;;;;;;;9.42;59.71;99444.50;4466784;32;26495;-82
2022/01/30 09:26:11;;;;;;;;;;;;;;;9.44;59.71;99479.06;4462265;32;30681;-84
2022/01/30 09:28:37;;;;;;;;;;;;;;;9.41;59.70;99463.59;4451641;32;31128;-83
2022/01/30 09:31:02;;;;;;;;;;;;;;;9.49;59.72;99450.38;4462728;32;20254;-84
2022/01/30 09:33:27;;;;;;;;;;;;;;;9.66;59.72;99445.44;4453463;32;20001;-84
2022/01/30 09:35:53;;;;;;;;;;;;;;;9.82;59.72;99441.44;4438630;32;20006;-81
2022/01/30 09:38:18;;;;;;;;;;;;;;;9.98;59.73;99443.53;4452386;32;19981;-82
2022/01/30 09:40:43;;;;;;;;;;;;;;;10.08;59.73;99444.91;4452233;32;20321;-86
2022/01/30 09:43:08;;;;;;;;;;;;;;;9.99;59.73;99459.09;4450917;32;27109;-82
2022/01/30 09:45:34;;;;;;;;;;;;;;;10.18;59.75;99448.06;4452084;32;30788;-81
2022/01/30 09:47:59;;;;;;;;;;;;;;;9.93;59.73;99461.88;4438263;32;19973;-82
2022/01/30 09:50:24;;;;;;;;;;;;;;;9.51;59.71;99432.97;4451795;32;20349;-82
2022/01/30 09:52:49;;;;;;;;;;;;;;;9.44;59.70;99437.50;4438282;32;20254;-82
2022/01/30 09:55:15;;;;;;;;;;;;;;;9.29;59.70;99435.41;4451599;32;21740;-83
2022/01/30 09:57:41;;;;;;;;;;;;;;;9.33;59.69;99434.41;4452378;32;20050;-83
2022/01/30 10:00:06;;;;;;;;;;;;;;;9.21;59.70;99440.00;4425068;32;20615;-82
2022/01/30 10:02:31;;;;;;;;;;;;;;;9.35;59.70;99458.59;4438000;32;19996;-82
2022/01/30 10:04:57;;;;;;;;;;;;;;;9.08;59.68;99438.69;4452532;32;20277;-83
2022/01/30 10:07:26;;;;;;;;;;;;;;;9.37;59.70;99445.56;4452131;32;24688;-83
2022/01/30 10:09:51;;;;;;;;;;;;;;;9.19;59.68;99457.38;4442049;32;20333;-84
2022/01/30 10:12:19;;;;;;;;;;;;;;;9.23;59.70;99465.03;4436834;32;19989;-83
2022/01/30 10:14:47;;;;;;;;;;;;;;;8.84;59.68;99461.91;4437192;32;20011;-82
2022/01/30 10:17:23;;;;;;;;;;;;;;;8.83;59.68;99501.72;4436869;32;20315;-83
2022/01/30 10:19:49;;;;;;;;;;;;;;;8.30;59.65;99498.84;4436020;32;20000;-83
2022/01/30 10:22:14;;;;;;;;;;;;;;;7.66;59.60;99504.81;4436964;32;19998;-82
2022/01/30 10:24:42;;;;;;;;;;;;;;;7.34;59.59;99505.56;4437046;32;20007;-82
2022/01/30 10:27:24;;;;;;;;;;;;;;;7.22;59.58;99506.69;4435763;32;19977;-83
2022/01/30 10:30:18;;;;;;;;;;;;;;;7.38;59.59;99486.47;4435241;32;19986;-82
2022/01/30 10:32:52;;;;;;;;;;;;;;;7.25;59.59;99496.25;4416740;32;19990;-83
2022/01/30 10:35:17;;;;;;;;;;;;;;;7.20;59.58;99481.72;4422188;32;20339;-82
2022/01/30 10:37:43;;;;;;;;;;;;;;;7.42;59.60;99498.47;4446148;32;34218;-83
2022/01/30 10:40:12;;;;;;;;;;;;;;;7.50;59.60;99496.53;4439862;32;20015;-83
2022/01/30 10:42:44;;;;;;;;;;;;;;;7.61;59.60;99478.16;4453850;32;20349;-82
2022/01/30 10:45:13;;;;;;;;;;;;;;;7.76;59.62;99498.50;4454065;32;20076;-82
2022/01/30 10:47:38;;;;;;;;;;;;;;;7.83;59.61;99496.63;4439733;32;19990;-82
2022/01/30 10:50:08;;;;;;;;;;;;;;;7.98;59.62;99491.88;4439542;32;20018;-83
2022/01/30 10:52:33;;;;;;;;;;;;;;;8.08;59.64;99496.84;4453619;32;20004;-82
2022/01/30 10:55:04;;;;;;;;;;;;;;;8.05;59.63;99490.00;4453664;32;21893;-81
2022/01/30 10:57:29;;;;;;;;;;;;;;;8.20;59.64;99473.19;4427125;32;19980;-83
2022/01/30 10:59:56;;;;;;;;;;;;;;;8.44;59.65;99480.34;4449204;32;20037;-83
2022/01/30 11:02:22;;;;;;;;;;;;;;;8.51;59.66;99471.47;4469589;32;19999;-82
2022/01/30 11:04:48;;;;;;;;;;;;;;;8.55;59.66;99487.84;4469564;32;19973;-83
2022/01/30 11:07:19;;;;;;;;;;;;;;;8.89;59.67;99461.75;4469480;32;19991;-83
2022/01/30 11:09:53;;;;;;;;;;;;;;;9.27;59.70;99467.53;4455526;32;20593;-81
2022/01/30 11:12:29;;;;;;;;;;;;;;;9.42;59.71;99475.69;4469554;32;20037;-83
2022/01/30 11:15:04;;;;;;;;;;;;;;;9.44;59.70;99465.25;4456558;32;19965;-82
2022/01/30 11:17:30;;;;;;;;;;;;;;;9.50;59.71;99459.87;4469439;32;20804;-82
2022/01/30 11:19:57;;;;;;;;;;;;;;;9.53;59.71;99436.37;4454586;32;31919;-82
2022/01/30 11:22:23;;;;;;;;;;;;;;;9.49;59.72;99446.03;4469556;32;19984;-82
2022/01/30 11:24:54;;;;;;;;;;;;;;;9.41;59.70;99461.00;4454935;32;20323;-83
2022/01/30 11:27:21;;;;;;;;;;;;;;;9.29;59.70;99447.56;4455275;32;20246;-84
2022/01/30 11:29:46;;;;;;;;;;;;;;;9.05;59.69;99418.88;4454777;32;20024;-82
2022/01/30 11:32:11;;;;;;;;;;;;;;;9.08;59.69;99423.97;4469452;32;20273;-82
2022/01/30 11:34:37;;;;;;;;;;;;;;;9.11;59.68;99455.00;4469556;32;19996;-82
2022/01/30 11:37:03;;;;;;;;;;;;;;;8.88;59.67;99460.91;4469670;32;19997;-82
2022/01/30 11:39:28;;;;;;;;;;;;;;;8.67;59.67;99435.59;4469216;32;19968;-82
2022/01/30 11:42:06;;;;;;;;;;;;;;;8.65;59.67;99465.06;4468586;32;32600;-83
2022/01/30 11:44:31;;;;;;;;;;;;;;;8.71;59.67;99483.03;4454750;32;20039;-84
2022/01/30 11:46:57;;;;;;;;;;;;;;;8.36;59.65;99469.31;4469261;32;20000;-82
2022/01/30 11:49:24;;;;;;;;;;;;;;;8.37;59.65;99455.47;4469460;32;19985;-81
2022/01/30 11:51:50;;;;;;;;;;;;;;;8.54;59.66;99439.44;4469468;32;19999;-82
2022/01/30 11:54:34;;;;;;;;;;;;;;;8.60;59.66;99429.72;4455515;32;19973;-81
2022/01/30 11:56:59;;;;;;;;;;;;;;;8.74;59.67;99416.31;4469360;32;20377;-81
2022/01/30 11:59:37;;;;;;;;;;;;;;;8.85;59.67;99403.06;4454463;32;29292;-82
2022/01/30 12:02:21;;;;;;;;;;;;;;;8.97;59.68;99387.09;4469572;32;19985;-82
2022/01/30 12:04:54;;;;;;;;;;;;;;;8.96;59.68;99392.31;4469145;32;20036;-82
2022/01/30 12:07:34;;;;;;;;;;;;;;;9.24;59.69;99408.75;4469171;32;19980;-81
2022/01/30 12:10:18;;;;;;;;;;;;;;;9.34;59.71;99366.00;4469196;32;20048;-82
2022/01/30 12:12:47;;;;;;;;;;;;;;;9.21;59.70;99388.03;4469419;32;20140;-82
2022/01/30 12:15:31;;;;;;;;;;;;;;;8.89;59.68;99408.09;4455205;32;20031;-82
2022/01/30 12:17:56;;;;;;;;;;;;;;;8.96;59.68;99381.94;4469437;32;20359;-82
2022/01/30 12:20:22;;;;;;;;;;;;;;;9.16;59.69;99389.94;4454844;32;20024;-84
2022/01/30 12:22:48;;;;;;;;;;;;;;;9.37;59.71;99380.62;4455058;32;19997;-83
2022/01/30 12:25:25;;;;;;;;;;;;;;;9.53;59.71;99369.69;4469478;32;19991;-83
2022/01/30 12:27:51;;;;;;;;;;;;;;;9.52;59.71;99403.50;4454757;32;19999;-83
2022/01/30 12:30:35;;;;;;;;;;;;;;;9.53;59.71;99449.38;4454704;32;20001;-82
2022/01/30 12:33:00;;;;;;;;;;;;;;;9.31;59.70;99389.47;4469404;32;19989;-82
2022/01/30 12:35:25;;;;;;;;;;;;;;;9.20;59.70;99392.41;4469179;32;19989;-83
2022/01/30 12:37:51;;;;;;;;;;;;;;;9.23;59.70;99400.13;4469473;32;20023;-82
2022/01/30 12:40:17;;;;;;;;;;;;;;;9.13;59.69;99400.44;4469363;32;20003;-82
2022/01/30 12:42:42;;;;;;;;;;;;;;;9.13;59.69;99411.66;4446404;32;19993;-86
2022/01/30 12:45:09;;;;;;;;;;;;;;;9.16;59.69;99397.75;4425973;32;20011;-85
2022/01/30 12:47:55;;;;;;;;;;;;;;;9.14;59.69;99374.41;4439571;32;20339;-84
2022/01/30 12:50:32;;;;;;;;;;;;;;;9.30;59.70;99389.53;4438979;32;19988;-85
2022/01/30 12:52:57;;;;;;;;;;;;;;;9.35;59.71;99395.41;4440603;32;19984;-85
2022/01/30 12:55:23;;;;;;;;;;;;;;;9.27;59.71;99384.44;4452832;32;24000;-86
2022/01/30 12:57:49;;;;;;;;;;;;;;;9.52;59.71;99409.56;4438470;32;20543;-86
2022/01/30 13:00:15;;;;;;;;;;;;;;;9.21;59.70;99399.28;4449940;32;19997;-86
2022/01/30 13:02:51;;;;;;;;;;;;;;;9.14;59.70;99408.19;4454745;32;20034;-87
2022/01/30 13:05:17;;;;;;;;;;;;;;;9.30;59.70;99400.75;4454694;32;20073;-89
2022/01/30 13:07:43;;;;;;;;;;;;;;;9.40;59.70;99390.91;4454600;32;20298;-86
2022/01/30 13:10:11;;;;;;;;;;;;;;;9.35;59.71;99385.88;4454068;32;20042;-89
2022/01/30 13:12:36;;;;;;;;;;;;;;;9.54;59.71;99358.38;4454281;32;20334;-87
2022/01/30 13:15:05;;;;;;;;;;;;;;;9.46;59.71;99373.38;4441307;32;20008;-87
2022/01/30 13:17:31;;;;;;;;;;;;;;;9.61;59.72;99355.56;4454323;32;19969;-87
2022/01/30 13:19:56;;;;;;;;;;;;;;;9.62;59.72;99336.47;4454448;32;20000;-87
2022/01/30 13:22:29;;;;;;;;;;;;;;;9.55;59.71;99348.84;4468191;32;20330;-87
2022/01/30 13:24:57;;;;;;;;;;;;;;;9.65;59.72;99344.16;4454763;32;19984;-82
2022/01/30 13:27:23;;;;;;;;;;;;;;;9.60;59.72;99369.47;4454434;32;20777;-83
2022/01/30 13:29:48;;;;;;;;;;;;;;;9.46;59.71;99350.00;4468201;32;25693;-82
2022/01/30 13:32:13;;;;;;;;;;;;;;;9.55;59.71;99364.41;4468698;32;19991;-82
2022/01/30 13:34:39;;;;;;;;;;;;;;;9.51;59.71;99386.22;4468698;32;19993;-85
2022/01/30 13:37:05;;;;;;;;;;;;;;;9.13;59.69;99354.56;4468661;32;19979;-83
2022/01/30 13:39:40;;;;;;;;;;;;;;;9.22;59.70;99390.59;4468776;32;20271;-83
2022/01/30 13:42:57;;;;;;;;;;;;;;;9.30;59.70;99407.69;4454467;32;20042;-82
2022/01/30 13:47:50;;;;;;;;;;;;;;;9.61;59.72;99434.38;4468693;32;19995;-81
2022/01/30 13:50:15;;;;;;;;;;;;;;;9.16;59.69;99454.88;4468612;32;20011;-82
2022/01/30 13:52:41;;;;;;;;;;;;;;;8.57;59.66;99413.41;4454403;32;20326;-82